Create Tblcommutelog Verified Points Advance Search
| # | Trip ID | Id Commuter | Trip Date | Trip Num | Current Lat | Current Lng | Delta Distance | Current Time | Activity | Activity Confidence | Current Speed | |
|---|---|---|---|---|---|---|---|---|---|---|---|---|
| 72261 | 250730_750610_16616834_1653 | 750610 | (not set) | (not set) | 38.681946590715 | -77.318784022537 | 21.1091 | 2025-07-30 17:53:27 | in_vehicle | 100 | 8.8066734020582 | |
| 72262 | 250730_784414_16654419_1737 | 784414 | (not set) | (not set) | 38.847359917999 | -77.048548703826 | 3.6619 | 2025-07-30 17:53:36 | in_vehicle | 100 | -0.44703925898772 | |
| 72263 | 250730_787157_16655598_1728 | 787157 | (not set) | (not set) | 38.931784747179 | -76.994258044403 | 6.7846 | 2025-07-30 17:53:49 | in_vehicle | 100 | 8.9184332168051 | |
| 72264 | 250730_784815_16652847_1719 | 784815 | (not set) | (not set) | 39.208755379213 | -76.695866116199 | 30.7558 | 2025-07-30 17:53:51 | in_vehicle | 100 | 12.660151814532 | |
| 72265 | 250730_780933_16648605_1724 | 780933 | (not set) | (not set) | 38.963206152026 | -76.85892800443 | 10.4557 | 2025-07-30 17:54:13 | in_vehicle | 100 | 10.782586926784 | |
| 72266 | 250730_785681_16653847_1708 | 785681 | (not set) | (not set) | 39.075585140129 | -77.163306220868 | 4.9858 | 2025-07-30 17:54:23 | unknown | 100 | 5.7489248705821 | |
| 72267 | 250730_784815_16652847_1719 | 784815 | (not set) | (not set) | 39.221861346088 | -76.693732398699 | 31.6692 | 2025-07-30 17:54:38 | in_vehicle | 100 | 14.703121228106 | |
| 72268 | 250730_765311_16652720_1640 | 765311 | (not set) | (not set) | 39.179457090514 | -76.693614437153 | 14.1014 | 2025-07-30 17:54:51 | in_vehicle | 100 | 11.66772465958 | |
| 72269 | 250730_780933_16648605_1724 | 780933 | (not set) | (not set) | 38.971032233008 | -76.847373649757 | 11.2844 | 2025-07-30 17:55:03 | in_vehicle | 100 | 10.308725312257 | |
| 72270 | 250730_787091_16655523_1721 | 787091 | (not set) | (not set) | 39.291667302952 | -76.561557127432 | 3.1142 | 2025-07-30 17:55:20 | in_vehicle | 100 | 4.407807093619 | |
| 72271 | 250730_777992_16655472_1738 | 777992 | (not set) | (not set) | 38.9984779 | -76.9314142 | 0.661 | 2025-07-30 17:55:31 | in_vehicle | 100 | 4.4703925898772 | |
| 72272 | 250730_780810_16648488_1715 | 780810 | (not set) | (not set) | 38.992951353634 | -77.030139558354 | 9.284 | 2025-07-30 17:55:38 | in_vehicle | 100 | 0 | |
| 72273 | 250730_770164_16637262_1734 | 770164 | (not set) | (not set) | 38.889919742876 | -77.207255368531 | 1.7154 | 2025-07-30 17:55:52 | on_bicycle | 100 | 5.5745795595769 | |
| 72274 | 250730_784414_16654419_1737 | 784414 | (not set) | (not set) | 38.832030023378 | -77.047549437879 | 5.117 | 2025-07-30 17:55:57 | in_vehicle | 100 | -0.44703925898772 | |
| 72275 | 250730_784414_16654419_1737 | 784414 | (not set) | (not set) | 38.830792736883 | -77.04613833801 | 5.117 | 2025-07-30 17:56:06 | still | 33 | -0.44703925898772 | |
| 72276 | 250730_786504_16654846_1756 | 786504 | (not set) | (not set) | 38.991147920963 | -76.951015403551 | 0 | 2025-07-30 17:56:13 | on_foot | 100 | -0.44703925898772 | |
| 72277 | 250730_765311_16652720_1640 | 765311 | (not set) | (not set) | 39.153058565167 | -76.697376874762 | 15.9392 | 2025-07-30 17:56:26 | in_vehicle | 100 | 15.963771938452 | |
| 72278 | 250730_753795_16619971_1717 | 753795 | (not set) | (not set) | 38.946214755347 | -76.999865633373 | 4.9367 | 2025-07-30 17:56:30 | in_vehicle | 100 | 2.3246041467362 | |
| 72279 | 250730_753795_16619971_1717 | 753795 | (not set) | (not set) | 38.946214755347 | -76.999865633373 | 4.9367 | 2025-07-30 17:56:30 | in_vehicle | 100 | 2.3246041467362 | |
| 72280 | 250730_777992_16655472_1738 | 777992 | (not set) | (not set) | 39.0067234 | -76.9297603 | 1.2373 | 2025-07-30 17:56:42 | in_vehicle | 100 | 5.4851717077794 |